Time;durP1;ratioP1;P1;durP2;ratioP2;P2;SDS_P1;SDS_P2;PMS_P1;PMS_P2;Temp;Humidity;BMP_temperature;BMP_pressure;BME280_temperature;BME280_humidity;BME280_pressure;Samples;Min_cycle;Max_cycle;Signal;HPM_P1;HPM_P2
2023/01/17 08:14:55;;;;;;;11.47;7.40;;;-1.00;99.90;;;;;;5087235;28;20565;-81
2023/01/17 08:18:35;;;;;;;6.60;3.00;;;-0.90;99.90;;;;;;5135844;27;20283;-79
2023/01/17 08:22:18;;;;;;;3.17;2.57;;;-0.40;99.90;;;;;;5113842;27;20748;-79
2023/01/17 08:24:44;;;;;;;6.50;3.87;;;-0.30;99.90;;;;;;5096318;28;20496;-80
2023/01/17 08:27:10;;;;;;;6.27;4.10;;;0.20;99.90;;;;;;5094929;28;20258;-80
2023/01/17 08:29:36;;;;;;;5.40;3.57;;;0.80;99.90;;;;;;5095868;28;20195;-80
2023/01/17 08:32:02;;;;;;;9.30;4.30;;;1.30;99.90;;;;;;5095705;28;20171;-79
2023/01/17 08:34:27;;;;;;;6.70;3.03;;;1.80;99.90;;;;;;5113444;28;20175;-81
2023/01/17 08:36:53;;;;;;;6.50;3.70;;;2.10;99.90;;;;;;5095490;28;20470;-80
2023/01/17 08:39:20;;;;;;;5.93;3.80;;;2.20;99.90;;;;;;5094506;28;20196;-81
2023/01/17 08:41:46;;;;;;;5.27;3.30;;;2.20;99.90;;;;;;5094684;28;20191;-81
2023/01/17 08:44:14;;;;;;;8.43;3.47;;;2.20;99.90;;;;;;5094871;28;20515;-81
2023/01/17 08:46:40;;;;;;;7.03;3.73;;;2.10;99.90;;;;;;5113005;28;20398;-81
2023/01/17 08:49:05;;;;;;;8.43;4.70;;;1.80;99.90;;;;;;5113844;28;20501;-81
2023/01/17 08:51:32;;;;;;;9.87;5.27;;;1.50;99.90;;;;;;5096004;28;20206;-81
2023/01/17 08:53:58;;;;;;;8.10;4.90;;;1.30;99.90;;;;;;5099872;28;20700;-80
2023/01/17 08:56:24;;;;;;;7.63;4.97;;;1.20;99.90;;;;;;5113649;28;20218;-80
2023/01/17 08:58:50;;;;;;;5.97;4.00;;;1.10;99.90;;;;;;5113391;28;20762;-81
2023/01/17 09:01:16;;;;;;;6.70;4.10;;;0.90;99.90;;;;;;5113670;28;20441;-81
2023/01/17 09:03:42;;;;;;;9.63;5.83;;;0.80;99.90;;;;;;5113585;28;20167;-82
2023/01/17 09:06:09;;;;;;;15.03;7.90;;;0.80;99.90;;;;;;5113746;28;20172;-81
2023/01/17 09:08:38;;;;;;;15.00;8.10;;;0.80;99.90;;;;;;5094978;28;20444;-81
2023/01/17 09:11:10;;;;;;;9.03;5.60;;;1.00;99.90;;;;;;5114098;28;20424;-81
2023/01/17 09:13:36;;;;;;;10.00;4.93;;;1.50;99.90;;;;;;5117833;28;20512;-80
2023/01/17 09:16:03;;;;;;;6.87;4.43;;;2.20;99.90;;;;;;5094385;28;20459;-81
2023/01/17 09:18:30;;;;;;;6.63;4.00;;;3.00;99.90;;;;;;5112545;28;20259;-81
2023/01/17 09:20:58;;;;;;;6.97;3.30;;;3.50;99.90;;;;;;5113005;28;21068;-81
2023/01/17 09:23:25;;;;;;;9.57;4.07;;;3.80;99.90;;;;;;5094138;28;20409;-80
2023/01/17 09:25:55;;;;;;;9.33;4.00;;;4.30;99.90;;;;;;5112664;28;20189;-82
2023/01/17 09:28:21;;;;;;;4.20;2.43;;;4.80;99.90;;;;;;5093675;28;20172;-81
2023/01/17 09:30:47;;;;;;;3.50;1.80;;;5.00;99.90;;;;;;5093850;28;20184;-82
2023/01/17 09:33:13;;;;;;;2.33;1.83;;;4.90;99.90;;;;;;5101215;28;20626;-83
2023/01/17 09:35:39;;;;;;;3.20;1.10;;;4.80;99.90;;;;;;5080900;28;20185;-81
2023/01/17 09:38:04;;;;;;;3.60;2.50;;;4.30;99.90;;;;;;5080566;28;20273;-82
2023/01/17 09:40:30;;;;;;;6.33;2.93;;;4.20;99.90;;;;;;5080388;28;20314;-81
2023/01/17 09:43:04;;;;;;;2.83;1.23;;;4.00;99.90;;;;;;5080270;28;20628;-81
2023/01/17 09:45:32;;;;;;;2.20;1.27;;;4.20;99.90;;;;;;5080539;28;20247;-80
2023/01/17 09:48:00;;;;;;;3.27;1.63;;;4.40;99.90;;;;;;5098525;28;20169;-80
2023/01/17 09:50:30;;;;;;;2.77;1.47;;;4.50;99.90;;;;;;5098654;28;20190;-79
2023/01/17 09:53:05;;;;;;;4.17;2.10;;;4.40;99.90;;;;;;5098452;28;20168;-79
2023/01/17 09:55:40;;;;;;;3.53;2.17;;;4.00;99.90;;;;;;5098238;28;20633;-80
2023/01/17 09:58:11;;;;;;;2.93;1.30;;;3.70;99.90;;;;;;5080928;28;20183;-80
2023/01/17 10:00:45;;;;;;;1.27;1.07;;;3.30;99.90;;;;;;5099042;28;20682;-80
2023/01/17 10:03:38;;;;;;;2.13;1.60;;;3.00;99.90;;;;;;5098566;28;20166;-81
2023/01/17 10:06:15;;;;;;;2.27;1.53;;;2.80;99.90;;;;;;5080310;28;20194;-78
2023/01/17 10:08:47;;;;;;;2.43;1.70;;;2.70;99.90;;;;;;5080333;28;20191;-79
2023/01/17 10:11:41;;;;;;;4.90;1.83;;;2.80;99.90;;;;;;5098182;28;20173;-81
2023/01/17 10:14:29;;;;;;;3.73;1.60;;;2.70;99.90;;;;;;5098703;28;20222;-80
2023/01/17 10:17:00;;;;;;;2.23;1.50;;;2.80;99.90;;;;;;5079813;28;20174;-81
2023/01/17 10:19:52;;;;;;;1.73;1.23;;;2.80;99.90;;;;;;5080546;28;20582;-81
2023/01/17 10:22:21;;;;;;;2.37;1.30;;;2.80;99.90;;;;;;5081543;28;20204;-81
2023/01/17 10:24:52;;;;;;;1.73;1.30;;;2.90;99.90;;;;;;5111214;28;20220;-83
2023/01/17 10:27:23;;;;;;;1.57;1.47;;;3.00;99.90;;;;;;5084412;28;20161;-80
2023/01/17 10:29:50;;;;;;;3.63;1.40;;;3.00;99.90;;;;;;5079488;28;20292;-79
2023/01/17 10:32:18;;;;;;;2.37;1.40;;;3.10;99.90;;;;;;5097810;28;20198;-80
2023/01/17 10:34:49;;;;;;;3.23;1.47;;;3.10;99.90;;;;;;5079257;28;20269;-81
2023/01/17 10:37:26;;;;;;;1.37;1.10;;;3.00;99.90;;;;;;5097643;28;20163;-81
2023/01/17 10:39:56;;;;;;;1.23;1.03;;;2.80;99.90;;;;;;5097354;28;20188;-80
2023/01/17 10:42:34;;;;;;;2.40;1.10;;;2.70;99.90;;;;;;5097363;28;20173;-80
2023/01/17 10:45:06;;;;;;;1.57;1.47;;;2.60;99.90;;;;;;5097408;28;20155;-82
2023/01/17 10:47:36;;;;;;;4.07;1.40;;;2.50;99.90;;;;;;5098213;28;20179;-82
2023/01/17 10:50:04;;;;;;;3.30;1.60;;;2.60;99.90;;;;;;5098604;28;20181;-81
2023/01/17 10:52:45;;;;;;;3.83;1.70;;;2.50;99.90;;;;;;5097699;28;20168;-81
2023/01/17 10:55:52;;;;;;;2.07;1.60;;;2.60;99.90;;;;;;5082864;28;20668;-81
2023/01/17 10:58:18;;;;;;;3.10;1.93;;;2.70;99.90;;;;;;5017497;28;20184;-80
2023/01/17 11:00:48;;;;;;;4.63;2.60;;;2.70;99.90;;;;;;5084328;28;20667;-81
2023/01/17 11:03:19;;;;;;;4.20;2.33;;;2.50;99.90;;;;;;5079709;28;20190;-81
2023/01/17 11:06:07;;;;;;;2.33;1.50;;;2.50;99.90;;;;;;5078658;28;20533;-79
2023/01/17 11:08:58;;;;;;;2.23;1.63;;;2.50;99.90;;;;;;5078337;28;20198;-78
2023/01/17 11:11:33;;;;;;;3.33;1.73;;;2.30;99.90;;;;;;5097085;28;20155;-80
2023/01/17 11:14:03;;;;;;;1.57;1.47;;;2.20;99.90;;;;;;5096497;28;20173;-80
2023/01/17 11:16:32;;;;;;;3.23;1.90;;;2.20;99.90;;;;;;5096678;28;20578;-80
2023/01/17 11:19:27;;;;;;;2.40;1.30;;;2.20;99.90;;;;;;5096636;28;20554;-80
2023/01/17 11:22:00;;;;;;;3.17;1.57;;;2.30;99.90;;;;;;5078162;28;20218;-80
2023/01/17 11:24:39;;;;;;;5.80;1.70;;;2.30;99.90;;;;;;5096279;28;20526;-80
2023/01/17 11:27:06;;;;;;;1.70;1.60;;;2.20;99.90;;;;;;5096379;28;20530;-80
2023/01/17 11:29:37;;;;;;;1.73;1.50;;;2.20;99.90;;;;;;5096153;28;20195;-81
2023/01/17 11:32:21;;;;;;;1.40;1.30;;;2.10;99.90;;;;;;5077954;28;20772;-81
2023/01/17 11:35:15;;;;;;;1.67;1.20;;;2.20;99.90;;;;;;5095605;28;20626;-79
2023/01/17 11:37:56;;;;;;;1.80;1.27;;;2.20;99.90;;;;;;5095950;28;20153;-78
2023/01/17 11:40:34;;;;;;;1.77;1.27;;;2.20;99.90;;;;;;5077574;28;20249;-79
2023/01/17 11:43:09;;;;;;;3.50;1.33;;;2.20;99.90;;;;;;5078389;28;20910;-80
2023/01/17 11:45:35;;;;;;;2.70;1.47;;;2.20;99.90;;;;;;5078231;28;20160;-79
2023/01/17 11:48:09;;;;;;;1.67;1.40;;;2.30;99.90;;;;;;5096540;28;20410;-80
2023/01/17 11:50:37;;;;;;;2.90;1.57;;;2.30;99.90;;;;;;5096431;28;20187;-80
2023/01/17 11:53:29;;;;;;;2.10;1.80;;;2.20;99.90;;;;;;5097610;28;20168;-79
2023/01/17 11:56:05;;;;;;;2.97;1.20;;;2.20;99.90;;;;;;5078787;28;20846;-81
2023/01/17 11:58:34;;;;;;;2.40;1.53;;;2.20;99.90;;;;;;5081094;28;20411;-82
2023/01/17 12:01:36;;;;;;;2.47;1.50;;;2.10;99.90;;;;;;5097340;28;20458;-80
2023/01/17 12:04:16;;;;;;;1.93;1.30;;;2.00;99.90;;;;;;5050330;28;20224;-80
2023/01/17 12:06:42;;;;;;;1.60;1.30;;;2.00;99.90;;;;;;5075688;28;20402;-79
2023/01/17 12:09:31;;;;;;;2.70;1.50;;;2.00;99.90;;;;;;5075184;28;20427;-79
2023/01/17 12:15:26;;;;;;;2.20;1.70;;;2.10;99.90;;;;;;5095638;28;20425;-79
2023/01/17 12:18:13;;;;;;;3.17;1.80;;;2.10;99.90;;;;;;5095768;28;20482;-79
2023/01/17 12:21:00;;;;;;;2.20;1.70;;;2.10;99.90;;;;;;5095224;28;20594;-80
2023/01/17 12:23:47;;;;;;;1.90;1.30;;;2.20;99.90;;;;;;5077357;28;20407;-80
2023/01/17 12:26:49;;;;;;;2.17;1.70;;;2.20;99.90;;;;;;5094944;28;20410;-80
2023/01/17 12:29:20;;;;;;;3.50;1.30;;;2.30;99.90;;;;;;5081154;28;20633;-80
2023/01/17 12:32:11;;;;;;;2.90;1.60;;;2.30;99.90;;;;;;5077870;28;20443;-80
2023/01/17 12:35:03;;;;;;;2.47;1.50;;;2.40;99.90;;;;;;5077726;28;20976;-80
2023/01/17 12:37:43;;;;;;;2.40;1.70;;;2.50;99.90;;;;;;5095784;28;20393;-80
2023/01/17 12:40:18;;;;;;;2.47;1.53;;;2.70;99.90;;;;;;5086653;28;20206;-81
2023/01/17 12:43:02;;;;;;;1.90;1.20;;;2.70;99.90;;;;;;5086868;28;20409;-81
2023/01/17 12:45:33;;;;;;;1.40;1.30;;;2.70;99.90;;;;;;5094772;28;20483;-80
2023/01/17 12:48:21;;;;;;;2.27;1.67;;;2.60;99.90;;;;;;5076901;28;20653;-80
2023/01/17 12:51:16;;;;;;;5.13;1.40;;;2.60;99.90;;;;;;5094889;28;20455;-79
2023/01/17 12:53:48;;;;;;;2.53;1.40;;;2.80;99.90;;;;;;5095250;28;20395;-79
2023/01/17 12:56:18;;;;;;;2.60;1.30;;;2.80;99.90;;;;;;5095337;28;20530;-80
2023/01/17 12:58:49;;;;;;;2.97;1.47;;;2.90;99.90;;;;;;5076950;28;20430;-80
2023/01/17 13:01:41;;;;;;;2.97;1.17;;;3.20;99.90;;;;;;5094954;28;20438;-79
2023/01/17 13:04:39;;;;;;;1.43;1.03;;;3.20;99.90;;;;;;5077687;28;20398;-78
2023/01/17 13:07:39;;;;;;;2.90;1.63;;;3.10;99.90;;;;;;5078540;28;20420;-81
2023/01/17 13:10:30;;;;;;;2.17;1.03;;;2.90;99.90;;;;;;5073235;28;20238;-79
2023/01/17 13:13:09;;;;;;;2.43;1.10;;;2.80;99.90;;;;;;5082057;28;20188;-80
2023/01/17 13:15:39;;;;;;;1.97;1.47;;;2.70;99.90;;;;;;5082830;28;20390;-80
2023/01/17 13:18:21;;;;;;;2.37;1.10;;;2.80;99.90;;;;;;5083969;28;20233;-80
2023/01/17 13:21:15;;;;;;;2.00;1.50;;;2.80;99.90;;;;;;5081835;28;20215;-81
2023/01/17 13:23:58;;;;;;;1.10;1.00;;;2.80;99.90;;;;;;5100673;28;20398;-80
2023/01/17 13:26:23;;;;;;;1.60;1.03;;;2.90;99.90;;;;;;5100135;28;20454;-79
2023/01/17 13:29:03;;;;;;;2.13;1.53;;;3.00;99.90;;;;;;5101074;28;20453;-81
2023/01/17 13:31:47;;;;;;;1.60;0.97;;;3.00;99.90;;;;;;5104738;28;20224;-82
2023/01/17 13:34:33;;;;;;;1.60;1.07;;;3.00;99.90;;;;;;5100433;28;20179;-81
2023/01/17 13:37:20;;;;;;;3.67;1.40;;;3.00;99.90;;;;;;5100719;28;20240;-81
2023/01/17 13:40:07;;;;;;;1.50;1.40;;;3.10;99.90;;;;;;5081813;28;20273;-81
2023/01/17 13:42:58;;;;;;;3.07;1.23;;;2.90;99.90;;;;;;5099993;28;20871;-80
2023/01/17 13:45:36;;;;;;;1.67;1.07;;;2.80;99.90;;;;;;5100658;28;20482;-82
2023/01/17 13:48:11;;;;;;;1.67;1.07;;;2.50;99.90;;;;;;5082363;28;20556;-82
2023/01/17 13:50:40;;;;;;;2.00;1.37;;;2.50;99.90;;;;;;5082230;28;20207;-81
2023/01/17 13:53:44;;;;;;;2.73;1.23;;;2.40;99.90;;;;;;5100654;28;20181;-81
2023/01/17 13:56:23;;;;;;;2.13;1.60;;;2.30;99.90;;;;;;5106497;28;20424;-81
2023/01/17 13:58:50;;;;;;;1.37;1.03;;;2.30;99.90;;;;;;5108566;28;20279;-79
2023/01/17 14:01:22;;;;;;;1.60;1.40;;;2.20;99.90;;;;;;5080832;28;20458;-80
2023/01/17 14:03:51;;;;;;;2.10;1.60;;;2.20;99.90;;;;;;5099168;28;20226;-80
2023/01/17 14:06:35;;;;;;;2.47;1.40;;;2.30;99.90;;;;;;5080555;28;20176;-80
2023/01/17 14:09:28;;;;;;;4.67;1.80;;;2.30;99.90;;;;;;5080300;28;20801;-79
2023/01/17 14:12:12;;;;;;;2.03;1.30;;;2.30;99.90;;;;;;5091088;28;20194;-79
2023/01/17 14:14:48;;;;;;;2.90;1.80;;;2.30;99.90;;;;;;5080760;28;20407;-79
2023/01/17 14:17:21;;;;;;;1.70;1.20;;;2.30;99.90;;;;;;5080402;28;20432;-79
2023/01/17 14:20:01;;;;;;;1.53;1.43;;;2.20;99.90;;;;;;5098456;28;20438;-80
2023/01/17 14:22:35;;;;;;;1.40;1.30;;;2.20;99.90;;;;;;5099031;28;20856;-79
2023/01/17 14:25:08;;;;;;;2.57;1.53;;;2.10;99.90;;;;;;5094268;28;20389;-79
2023/01/17 14:27:43;;;;;;;1.57;1.47;;;2.10;99.90;;;;;;5082129;28;20192;-78
2023/01/17 14:30:33;;;;;;;2.23;1.40;;;2.10;99.90;;;;;;5098445;28;20429;-80
2023/01/17 14:33:01;;;;;;;2.73;1.37;;;2.10;99.90;;;;;;5098176;28;20911;-80
2023/01/17 14:35:34;;;;;;;2.43;1.50;;;2.10;99.90;;;;;;5079385;28;20406;-79
2023/01/17 14:38:01;;;;;;;1.70;1.60;;;2.10;99.90;;;;;;5079421;28;20472;-79
2023/01/17 14:40:30;;;;;;;2.13;1.83;;;2.00;99.90;;;;;;5097545;28;20457;-80
2023/01/17 14:43:14;;;;;;;3.43;2.03;;;1.90;99.90;;;;;;5079975;28;20429;-79
2023/01/17 14:45:41;;;;;;;1.80;1.40;;;1.80;99.90;;;;;;5079912;28;20418;-78
2023/01/17 14:48:19;;;;;;;1.90;1.80;;;1.80;99.90;;;;;;5098379;28;20410;-79
2023/01/17 14:50:47;;;;;;;2.40;1.73;;;1.70;99.90;;;;;;5098234;28;20398;-80
2023/01/17 14:53:12;;;;;;;1.33;1.23;;;1.80;99.90;;;;;;5080251;28;20426;-80
2023/01/17 14:55:47;;;;;;;1.70;1.60;;;1.80;99.90;;;;;;5079982;28;20426;-80
2023/01/17 14:58:23;;;;;;;2.00;1.70;;;1.80;99.90;;;;;;5098460;28;20172;-80
2023/01/17 15:00:55;;;;;;;2.17;1.63;;;1.80;99.90;;;;;;5099152;28;20434;-80
2023/01/17 15:03:21;;;;;;;1.63;1.50;;;1.70;99.90;;;;;;5099637;28;20398;-79
2023/01/17 15:05:50;;;;;;;5.33;2.93;;;1.60;99.90;;;;;;5101610;28;20413;-79
2023/01/17 15:08:22;;;;;;;3.47;2.50;;;1.60;99.90;;;;;;5098036;28;20403;-78
